sensor_id;sensor_type;location;lat;lon;timestamp;P1;durP1;ratioP1;P2;durP2;ratioP2
74791;SDS011;63319;46.046;17.802;2023-09-19T00:02:53;5.50;;;2.97;;
74791;SDS011;63319;46.046;17.802;2023-09-19T00:06:02;5.50;;;2.40;;
74791;SDS011;63319;46.046;17.802;2023-09-19T00:09:05;6.05;;;2.70;;
74791;SDS011;63319;46.046;17.802;2023-09-19T00:12:22;5.00;;;2.78;;
74791;SDS011;63319;46.046;17.802;2023-09-19T00:15:25;5.05;;;2.47;;
74791;SDS011;63319;46.046;17.802;2023-09-19T00:18:31;5.28;;;2.80;;
74791;SDS011;63319;46.046;17.802;2023-09-19T00:21:37;4.13;;;2.17;;
74791;SDS011;63319;46.046;17.802;2023-09-19T00:24:40;5.53;;;2.80;;
74791;SDS011;63319;46.046;17.802;2023-09-19T00:27:45;4.95;;;2.40;;
74791;SDS011;63319;46.046;17.802;2023-09-19T00:30:53;4.68;;;2.60;;
74791;SDS011;63319;46.046;17.802;2023-09-19T00:33:58;5.88;;;2.80;;
74791;SDS011;63319;46.046;17.802;2023-09-19T00:37:02;5.07;;;2.37;;
74791;SDS011;63319;46.046;17.802;2023-09-19T00:40:07;4.55;;;2.63;;
74791;SDS011;63319;46.046;17.802;2023-09-19T00:43:14;6.05;;;3.03;;
74791;SDS011;63319;46.046;17.802;2023-09-19T00:46:17;5.78;;;2.58;;
74791;SDS011;63319;46.046;17.802;2023-09-19T00:49:22;4.18;;;2.22;;
74791;SDS011;63319;46.046;17.802;2023-09-19T00:52:25;5.63;;;2.60;;
74791;SDS011;63319;46.046;17.802;2023-09-19T00:55:29;5.75;;;2.70;;
74791;SDS011;63319;46.046;17.802;2023-09-19T00:58:36;5.47;;;2.50;;
74791;SDS011;63319;46.046;17.802;2023-09-19T01:01:40;4.80;;;2.33;;
74791;SDS011;63319;46.046;17.802;2023-09-19T01:04:43;4.95;;;2.70;;
74791;SDS011;63319;46.046;17.802;2023-09-19T01:07:47;5.07;;;2.37;;
74791;SDS011;63319;46.046;17.802;2023-09-19T01:10:55;5.10;;;2.60;;
74791;SDS011;63319;46.046;17.802;2023-09-19T01:14:25;4.80;;;2.40;;
74791;SDS011;63319;46.046;17.802;2023-09-19T01:17:51;5.10;;;2.50;;
74791;SDS011;63319;46.046;17.802;2023-09-19T01:21:05;4.47;;;2.38;;
74791;SDS011;63319;46.046;17.802;2023-09-19T01:30:53;4.47;;;2.50;;
74791;SDS011;63319;46.046;17.802;2023-09-19T01:34:03;4.03;;;2.05;;
74791;SDS011;63319;46.046;17.802;2023-09-19T01:37:10;5.00;;;2.78;;
74791;SDS011;63319;46.046;17.802;2023-09-19T01:40:14;4.60;;;2.40;;
74791;SDS011;63319;46.046;17.802;2023-09-19T01:43:27;5.00;;;2.53;;
74791;SDS011;63319;46.046;17.802;2023-09-19T01:46:35;6.35;;;2.90;;
74791;SDS011;63319;46.046;17.802;2023-09-19T01:49:55;4.75;;;2.20;;
74791;SDS011;63319;46.046;17.802;2023-09-19T01:53:07;5.28;;;2.50;;
74791;SDS011;63319;46.046;17.802;2023-09-19T01:56:20;4.53;;;2.30;;
74791;SDS011;63319;46.046;17.802;2023-09-19T01:59:28;4.13;;;2.20;;
74791;SDS011;63319;46.046;17.802;2023-09-19T02:02:38;6.18;;;2.60;;
74791;SDS011;63319;46.046;17.802;2023-09-19T02:05:48;4.03;;;2.17;;
74791;SDS011;63319;46.046;17.802;2023-09-19T02:08:53;5.15;;;2.38;;
74791;SDS011;63319;46.046;17.802;2023-09-19T02:11:58;5.87;;;2.60;;
74791;SDS011;63319;46.046;17.802;2023-09-19T02:15:01;4.38;;;2.40;;
74791;SDS011;63319;46.046;17.802;2023-09-19T02:18:05;5.40;;;2.50;;
74791;SDS011;63319;46.046;17.802;2023-09-19T02:21:09;5.30;;;2.05;;
74791;SDS011;63319;46.046;17.802;2023-09-19T02:24:15;4.75;;;2.20;;
74791;SDS011;63319;46.046;17.802;2023-09-19T02:27:18;5.10;;;2.70;;
74791;SDS011;63319;46.046;17.802;2023-09-19T02:30:21;4.57;;;2.03;;
74791;SDS011;63319;46.046;17.802;2023-09-19T02:33:28;4.90;;;2.40;;
74791;SDS011;63319;46.046;17.802;2023-09-19T02:36:36;4.40;;;2.00;;
74791;SDS011;63319;46.046;17.802;2023-09-19T02:39:42;5.68;;;2.55;;
74791;SDS011;63319;46.046;17.802;2023-09-19T02:42:47;4.33;;;2.20;;
74791;SDS011;63319;46.046;17.802;2023-09-19T02:45:52;5.82;;;2.10;;
74791;SDS011;63319;46.046;17.802;2023-09-19T02:48:59;5.32;;;2.60;;
74791;SDS011;63319;46.046;17.802;2023-09-19T02:52:03;4.07;;;2.20;;
74791;SDS011;63319;46.046;17.802;2023-09-19T02:55:07;4.53;;;2.50;;
74791;SDS011;63319;46.046;17.802;2023-09-19T02:58:12;5.77;;;2.60;;
74791;SDS011;63319;46.046;17.802;2023-09-19T03:01:17;4.47;;;2.30;;
74791;SDS011;63319;46.046;17.802;2023-09-19T03:04:22;5.60;;;2.50;;
74791;SDS011;63319;46.046;17.802;2023-09-19T03:07:25;5.00;;;2.60;;
74791;SDS011;63319;46.046;17.802;2023-09-19T03:10:29;6.32;;;2.50;;
74791;SDS011;63319;46.046;17.802;2023-09-19T03:13:34;3.67;;;2.00;;
74791;SDS011;63319;46.046;17.802;2023-09-19T03:16:39;4.97;;;2.60;;
74791;SDS011;63319;46.046;17.802;2023-09-19T03:19:43;3.70;;;2.10;;
74791;SDS011;63319;46.046;17.802;2023-09-19T03:22:47;4.68;;;2.20;;
74791;SDS011;63319;46.046;17.802;2023-09-19T03:25:51;5.13;;;2.53;;
74791;SDS011;63319;46.046;17.802;2023-09-19T03:28:55;5.07;;;2.10;;
74791;SDS011;63319;46.046;17.802;2023-09-19T03:31:58;5.55;;;2.13;;
74791;SDS011;63319;46.046;17.802;2023-09-19T03:35:02;4.95;;;2.47;;
74791;SDS011;63319;46.046;17.802;2023-09-19T03:38:10;4.68;;;2.17;;
74791;SDS011;63319;46.046;17.802;2023-09-19T03:41:13;4.22;;;2.25;;
74791;SDS011;63319;46.046;17.802;2023-09-19T03:44:20;4.63;;;2.20;;
74791;SDS011;63319;46.046;17.802;2023-09-19T03:47:24;4.88;;;2.28;;
74791;SDS011;63319;46.046;17.802;2023-09-19T03:50:29;5.05;;;2.30;;
74791;SDS011;63319;46.046;17.802;2023-09-19T03:53:32;4.60;;;2.38;;
74791;SDS011;63319;46.046;17.802;2023-09-19T03:56:35;5.18;;;2.17;;
74791;SDS011;63319;46.046;17.802;2023-09-19T03:59:39;4.67;;;2.27;;
74791;SDS011;63319;46.046;17.802;2023-09-19T04:02:45;4.70;;;2.28;;
74791;SDS011;63319;46.046;17.802;2023-09-19T04:05:49;4.72;;;2.30;;
74791;SDS011;63319;46.046;17.802;2023-09-19T04:08:52;5.28;;;2.40;;
74791;SDS011;63319;46.046;17.802;2023-09-19T04:11:55;5.28;;;2.75;;
74791;SDS011;63319;46.046;17.802;2023-09-19T04:14:59;3.60;;;2.00;;
74791;SDS011;63319;46.046;17.802;2023-09-19T04:18:02;4.60;;;2.08;;
74791;SDS011;63319;46.046;17.802;2023-09-19T04:21:06;4.53;;;2.38;;
74791;SDS011;63319;46.046;17.802;2023-09-19T04:24:09;4.88;;;2.10;;
74791;SDS011;63319;46.046;17.802;2023-09-19T04:27:13;4.60;;;2.60;;
74791;SDS011;63319;46.046;17.802;2023-09-19T04:30:17;4.03;;;1.93;;
74791;SDS011;63319;46.046;17.802;2023-09-19T04:33:20;4.45;;;2.40;;
74791;SDS011;63319;46.046;17.802;2023-09-19T04:36:24;4.68;;;2.30;;
74791;SDS011;63319;46.046;17.802;2023-09-19T04:39:38;6.65;;;2.28;;
74791;SDS011;63319;46.046;17.802;2023-09-19T04:42:41;5.65;;;2.10;;
74791;SDS011;63319;46.046;17.802;2023-09-19T04:45:44;4.50;;;2.20;;
74791;SDS011;63319;46.046;17.802;2023-09-19T04:48:49;4.63;;;2.13;;
74791;SDS011;63319;46.046;17.802;2023-09-19T04:51:52;5.25;;;2.42;;
74791;SDS011;63319;46.046;17.802;2023-09-19T04:54:56;4.90;;;2.25;;
74791;SDS011;63319;46.046;17.802;2023-09-19T04:58:00;4.97;;;2.58;;
74791;SDS011;63319;46.046;17.802;2023-09-19T05:01:03;6.50;;;2.30;;
74791;SDS011;63319;46.046;17.802;2023-09-19T05:04:06;5.07;;;2.50;;
74791;SDS011;63319;46.046;17.802;2023-09-19T05:07:13;4.43;;;2.10;;
74791;SDS011;63319;46.046;17.802;2023-09-19T05:10:26;5.45;;;2.20;;
74791;SDS011;63319;46.046;17.802;2023-09-19T05:13:29;9.88;;;4.22;;
74791;SDS011;63319;46.046;17.802;2023-09-19T05:16:34;12.80;;;4.27;;
74791;SDS011;63319;46.046;17.802;2023-09-19T05:19:38;12.30;;;4.53;;
74791;SDS011;63319;46.046;17.802;2023-09-19T05:22:42;18.25;;;4.90;;
74791;SDS011;63319;46.046;17.802;2023-09-19T05:25:45;15.02;;;5.30;;
74791;SDS011;63319;46.046;17.802;2023-09-19T05:28:49;10.25;;;5.25;;
74791;SDS011;63319;46.046;17.802;2023-09-19T05:31:52;18.50;;;6.33;;
74791;SDS011;63319;46.046;17.802;2023-09-19T05:34:57;14.63;;;6.18;;
74791;SDS011;63319;46.046;17.802;2023-09-19T05:38:01;16.95;;;6.40;;
74791;SDS011;63319;46.046;17.802;2023-09-19T05:41:05;18.45;;;7.00;;
74791;SDS011;63319;46.046;17.802;2023-09-19T05:44:09;21.02;;;7.72;;
74791;SDS011;63319;46.046;17.802;2023-09-19T05:47:13;18.67;;;6.37;;
74791;SDS011;63319;46.046;17.802;2023-09-19T05:50:16;14.00;;;6.13;;
74791;SDS011;63319;46.046;17.802;2023-09-19T05:53:33;16.92;;;6.75;;
74791;SDS011;63319;46.046;17.802;2023-09-19T05:56:36;16.05;;;6.20;;
74791;SDS011;63319;46.046;17.802;2023-09-19T05:59:40;16.90;;;6.60;;
74791;SDS011;63319;46.046;17.802;2023-09-19T06:02:54;12.57;;;6.17;;
74791;SDS011;63319;46.046;17.802;2023-09-19T06:06:00;18.98;;;5.60;;
74791;SDS011;63319;46.046;17.802;2023-09-19T06:09:04;16.73;;;6.65;;
74791;SDS011;63319;46.046;17.802;2023-09-19T06:12:11;16.33;;;5.85;;
74791;SDS011;63319;46.046;17.802;2023-09-19T06:15:15;18.20;;;6.60;;
74791;SDS011;63319;46.046;17.802;2023-09-19T06:18:22;16.70;;;5.63;;
74791;SDS011;63319;46.046;17.802;2023-09-19T06:21:40;17.20;;;5.40;;
74791;SDS011;63319;46.046;17.802;2023-09-19T06:24:45;10.30;;;4.75;;
74791;SDS011;63319;46.046;17.802;2023-09-19T06:27:50;18.25;;;4.25;;
74791;SDS011;63319;46.046;17.802;2023-09-19T06:31:20;19.40;;;4.72;;
74791;SDS011;63319;46.046;17.802;2023-09-19T06:34:26;13.30;;;4.13;;
74791;SDS011;63319;46.046;17.802;2023-09-19T06:37:30;13.32;;;4.55;;
74791;SDS011;63319;46.046;17.802;2023-09-19T06:40:36;8.38;;;3.80;;
74791;SDS011;63319;46.046;17.802;2023-09-19T06:43:41;9.48;;;3.30;;
74791;SDS011;63319;46.046;17.802;2023-09-19T06:46:45;8.40;;;2.83;;
74791;SDS011;63319;46.046;17.802;2023-09-19T06:49:55;8.97;;;2.63;;
74791;SDS011;63319;46.046;17.802;2023-09-19T06:52:59;11.43;;;2.30;;
74791;SDS011;63319;46.046;17.802;2023-09-19T06:56:04;7.68;;;2.03;;
74791;SDS011;63319;46.046;17.802;2023-09-19T06:59:09;6.60;;;1.83;;
74791;SDS011;63319;46.046;17.802;2023-09-19T07:02:12;5.22;;;1.83;;
74791;SDS011;63319;46.046;17.802;2023-09-19T07:05:22;5.30;;;1.77;;
74791;SDS011;63319;46.046;17.802;2023-09-19T07:08:25;8.13;;;1.40;;
74791;SDS011;63319;46.046;17.802;2023-09-19T07:11:45;12.75;;;1.45;;
74791;SDS011;63319;46.046;17.802;2023-09-19T07:15:00;5.30;;;1.17;;
74791;SDS011;63319;46.046;17.802;2023-09-19T07:18:03;4.18;;;1.23;;
74791;SDS011;63319;46.046;17.802;2023-09-19T07:21:07;6.53;;;1.30;;
74791;SDS011;63319;46.046;17.802;2023-09-19T07:24:14;3.88;;;1.00;;
74791;SDS011;63319;46.046;17.802;2023-09-19T07:27:32;5.80;;;0.90;;
74791;SDS011;63319;46.046;17.802;2023-09-19T07:30:36;7.47;;;1.25;;
74791;SDS011;63319;46.046;17.802;2023-09-19T07:33:40;3.58;;;1.00;;
74791;SDS011;63319;46.046;17.802;2023-09-19T07:36:46;3.47;;;1.10;;
74791;SDS011;63319;46.046;17.802;2023-09-19T07:39:50;6.53;;;0.95;;
74791;SDS011;63319;46.046;17.802;2023-09-19T07:42:53;5.57;;;1.10;;
74791;SDS011;63319;46.046;17.802;2023-09-19T07:45:56;6.22;;;1.30;;
74791;SDS011;63319;46.046;17.802;2023-09-19T07:49:03;7.13;;;1.50;;
74791;SDS011;63319;46.046;17.802;2023-09-19T07:52:08;8.93;;;1.80;;
74791;SDS011;63319;46.046;17.802;2023-09-19T07:55:12;9.23;;;1.58;;
74791;SDS011;63319;46.046;17.802;2023-09-19T07:58:19;5.45;;;1.20;;
74791;SDS011;63319;46.046;17.802;2023-09-19T08:01:29;5.18;;;1.20;;
74791;SDS011;63319;46.046;17.802;2023-09-19T08:04:33;4.43;;;1.30;;
74791;SDS011;63319;46.046;17.802;2023-09-19T08:07:37;3.77;;;1.00;;
74791;SDS011;63319;46.046;17.802;2023-09-19T08:10:40;4.70;;;0.90;;
74791;SDS011;63319;46.046;17.802;2023-09-19T08:13:49;4.32;;;1.15;;
74791;SDS011;63319;46.046;17.802;2023-09-19T08:16:55;5.50;;;1.27;;
74791;SDS011;63319;46.046;17.802;2023-09-19T08:19:59;4.80;;;1.25;;
74791;SDS011;63319;46.046;17.802;2023-09-19T08:23:04;5.30;;;1.17;;
74791;SDS011;63319;46.046;17.802;2023-09-19T08:26:14;3.55;;;1.10;;
74791;SDS011;63319;46.046;17.802;2023-09-19T08:29:31;2.25;;;0.80;;
74791;SDS011;63319;46.046;17.802;2023-09-19T08:32:58;5.20;;;1.15;;
74791;SDS011;63319;46.046;17.802;2023-09-19T08:36:07;3.30;;;1.00;;
74791;SDS011;63319;46.046;17.802;2023-09-19T08:39:11;4.97;;;1.10;;
74791;SDS011;63319;46.046;17.802;2023-09-19T08:42:16;3.00;;;0.93;;
74791;SDS011;63319;46.046;17.802;2023-09-19T08:45:20;3.67;;;0.98;;
74791;SDS011;63319;46.046;17.802;2023-09-19T08:52:10;7.07;;;1.60;;
74791;SDS011;63319;46.046;17.802;2023-09-19T08:55:23;9.90;;;1.10;;
74791;SDS011;63319;46.046;17.802;2023-09-19T08:58:31;6.55;;;1.00;;
74791;SDS011;63319;46.046;17.802;2023-09-19T09:01:43;4.18;;;0.82;;
74791;SDS011;63319;46.046;17.802;2023-09-19T09:04:47;5.53;;;1.15;;
74791;SDS011;63319;46.046;17.802;2023-09-19T09:07:52;3.97;;;1.02;;
74791;SDS011;63319;46.046;17.802;2023-09-19T09:10:58;3.13;;;0.90;;
74791;SDS011;63319;46.046;17.802;2023-09-19T09:14:06;3.58;;;1.02;;
74791;SDS011;63319;46.046;17.802;2023-09-19T09:17:12;4.60;;;1.08;;
74791;SDS011;63319;46.046;17.802;2023-09-19T09:20:16;5.30;;;1.35;;
74791;SDS011;63319;46.046;17.802;2023-09-19T09:23:21;4.57;;;1.70;;
74791;SDS011;63319;46.046;17.802;2023-09-19T09:29:57;6.88;;;1.75;;
74791;SDS011;63319;46.046;17.802;2023-09-19T09:33:10;7.07;;;1.45;;
74791;SDS011;63319;46.046;17.802;2023-09-19T09:36:15;3.47;;;0.90;;
74791;SDS011;63319;46.046;17.802;2023-09-19T09:39:29;4.05;;;1.60;;
74791;SDS011;63319;46.046;17.802;2023-09-19T09:42:34;5.90;;;1.50;;
74791;SDS011;63319;46.046;17.802;2023-09-19T09:45:41;6.80;;;2.83;;
74791;SDS011;63319;46.046;17.802;2023-09-19T09:52:15;10.15;;;3.40;;
74791;SDS011;63319;46.046;17.802;2023-09-19T09:55:22;12.02;;;3.65;;
74791;SDS011;63319;46.046;17.802;2023-09-19T09:58:25;10.97;;;3.53;;
74791;SDS011;63319;46.046;17.802;2023-09-19T10:01:47;10.02;;;3.00;;
74791;SDS011;63319;46.046;17.802;2023-09-19T10:04:56;12.77;;;3.45;;
74791;SDS011;63319;46.046;17.802;2023-09-19T10:08:23;7.80;;;2.72;;
74791;SDS011;63319;46.046;17.802;2023-09-19T10:11:28;7.88;;;2.17;;
74791;SDS011;63319;46.046;17.802;2023-09-19T10:14:34;7.50;;;2.50;;
74791;SDS011;63319;46.046;17.802;2023-09-19T10:17:44;12.25;;;2.30;;
74791;SDS011;63319;46.046;17.802;2023-09-19T10:20:48;7.65;;;1.90;;
74791;SDS011;63319;46.046;17.802;2023-09-19T10:23:53;5.93;;;1.70;;
74791;SDS011;63319;46.046;17.802;2023-09-19T10:26:59;7.50;;;1.70;;
74791;SDS011;63319;46.046;17.802;2023-09-19T10:30:04;6.07;;;1.60;;
74791;SDS011;63319;46.046;17.802;2023-09-19T10:33:21;8.00;;;1.60;;
74791;SDS011;63319;46.046;17.802;2023-09-19T10:36:33;11.85;;;1.80;;
74791;SDS011;63319;46.046;17.802;2023-09-19T10:39:39;5.85;;;1.15;;
74791;SDS011;63319;46.046;17.802;2023-09-19T10:42:44;5.55;;;1.30;;
74791;SDS011;63319;46.046;17.802;2023-09-19T10:45:52;6.20;;;1.37;;
74791;SDS011;63319;46.046;17.802;2023-09-19T10:49:00;6.07;;;1.38;;
74791;SDS011;63319;46.046;17.802;2023-09-19T10:52:04;4.65;;;1.58;;
74791;SDS011;63319;46.046;17.802;2023-09-19T10:55:10;4.00;;;1.23;;
74791;SDS011;63319;46.046;17.802;2023-09-19T10:58:28;5.30;;;1.25;;
74791;SDS011;63319;46.046;17.802;2023-09-19T11:01:42;5.33;;;1.47;;
74791;SDS011;63319;46.046;17.802;2023-09-19T11:04:50;5.93;;;1.50;;
74791;SDS011;63319;46.046;17.802;2023-09-19T11:07:59;2.50;;;1.00;;
74791;SDS011;63319;46.046;17.802;2023-09-19T11:11:06;3.10;;;1.10;;
74791;SDS011;63319;46.046;17.802;2023-09-19T11:14:42;4.20;;;1.00;;
74791;SDS011;63319;46.046;17.802;2023-09-19T11:17:47;6.07;;;1.10;;
74791;SDS011;63319;46.046;17.802;2023-09-19T11:21:08;4.97;;;0.90;;
74791;SDS011;63319;46.046;17.802;2023-09-19T11:24:34;4.18;;;1.20;;
74791;SDS011;63319;46.046;17.802;2023-09-19T11:28:01;2.80;;;1.00;;
74791;SDS011;63319;46.046;17.802;2023-09-19T11:34:47;7.60;;;1.53;;
74791;SDS011;63319;46.046;17.802;2023-09-19T11:44:34;22.13;;;14.85;;
74791;SDS011;63319;46.046;17.802;2023-09-19T11:47:39;21.42;;;12.10;;
74791;SDS011;63319;46.046;17.802;2023-09-19T11:50:45;9.90;;;5.40;;
74791;SDS011;63319;46.046;17.802;2023-09-19T11:53:58;11.57;;;4.65;;
74791;SDS011;63319;46.046;17.802;2023-09-19T11:57:04;6.82;;;2.60;;
74791;SDS011;63319;46.046;17.802;2023-09-19T12:00:17;6.10;;;1.60;;
74791;SDS011;63319;46.046;17.802;2023-09-19T12:03:21;3.83;;;1.17;;
74791;SDS011;63319;46.046;17.802;2023-09-19T12:06:26;4.93;;;1.60;;
74791;SDS011;63319;46.046;17.802;2023-09-19T12:09:32;4.72;;;1.40;;
74791;SDS011;63319;46.046;17.802;2023-09-19T12:12:36;5.40;;;1.33;;
74791;SDS011;63319;46.046;17.802;2023-09-19T12:15:39;3.85;;;1.00;;
74791;SDS011;63319;46.046;17.802;2023-09-19T12:18:48;3.20;;;1.20;;
74791;SDS011;63319;46.046;17.802;2023-09-19T12:21:59;4.07;;;0.90;;
74791;SDS011;63319;46.046;17.802;2023-09-19T12:25:13;3.60;;;0.98;;
74791;SDS011;63319;46.046;17.802;2023-09-19T12:28:20;6.20;;;1.15;;
74791;SDS011;63319;46.046;17.802;2023-09-19T12:31:27;6.32;;;1.15;;
74791;SDS011;63319;46.046;17.802;2023-09-19T12:34:31;3.90;;;1.10;;
74791;SDS011;63319;46.046;17.802;2023-09-19T12:37:42;2.27;;;0.90;;
74791;SDS011;63319;46.046;17.802;2023-09-19T12:40:51;2.50;;;0.90;;
74791;SDS011;63319;46.046;17.802;2023-09-19T12:43:56;3.20;;;1.33;;
74791;SDS011;63319;46.046;17.802;2023-09-19T12:47:07;4.10;;;0.93;;
74791;SDS011;63319;46.046;17.802;2023-09-19T12:50:13;4.30;;;1.20;;
74791;SDS011;63319;46.046;17.802;2023-09-19T12:53:25;4.90;;;1.10;;
74791;SDS011;63319;46.046;17.802;2023-09-19T12:56:39;3.75;;;1.40;;
74791;SDS011;63319;46.046;17.802;2023-09-19T12:59:48;3.88;;;1.30;;
74791;SDS011;63319;46.046;17.802;2023-09-19T13:06:37;3.63;;;1.20;;
74791;SDS011;63319;46.046;17.802;2023-09-19T13:10:02;5.00;;;1.20;;
74791;SDS011;63319;46.046;17.802;2023-09-19T13:13:22;5.10;;;1.05;;
74791;SDS011;63319;46.046;17.802;2023-09-19T13:16:30;3.05;;;1.10;;
74791;SDS011;63319;46.046;17.802;2023-09-19T13:19:35;4.68;;;1.00;;
74791;SDS011;63319;46.046;17.802;2023-09-19T13:22:56;3.05;;;0.82;;
74791;SDS011;63319;46.046;17.802;2023-09-19T13:26:14;3.40;;;1.00;;
74791;SDS011;63319;46.046;17.802;2023-09-19T13:29:17;7.78;;;0.90;;
74791;SDS011;63319;46.046;17.802;2023-09-19T13:32:21;2.42;;;0.82;;
74791;SDS011;63319;46.046;17.802;2023-09-19T13:35:24;3.92;;;1.20;;
74791;SDS011;63319;46.046;17.802;2023-09-19T13:38:28;4.15;;;0.80;;
74791;SDS011;63319;46.046;17.802;2023-09-19T13:41:31;8.70;;;0.90;;
74791;SDS011;63319;46.046;17.802;2023-09-19T13:44:35;4.35;;;0.88;;
74791;SDS011;63319;46.046;17.802;2023-09-19T13:47:54;2.63;;;0.80;;
74791;SDS011;63319;46.046;17.802;2023-09-19T13:50:59;3.42;;;1.35;;
74791;SDS011;63319;46.046;17.802;2023-09-19T13:54:05;5.90;;;1.48;;
74791;SDS011;63319;46.046;17.802;2023-09-19T13:57:08;4.77;;;1.30;;
74791;SDS011;63319;46.046;17.802;2023-09-19T14:00:15;5.70;;;1.27;;
74791;SDS011;63319;46.046;17.802;2023-09-19T14:03:22;5.25;;;1.15;;
74791;SDS011;63319;46.046;17.802;2023-09-19T14:06:27;4.85;;;1.02;;
74791;SDS011;63319;46.046;17.802;2023-09-19T14:09:30;4.18;;;1.08;;
74791;SDS011;63319;46.046;17.802;2023-09-19T14:12:33;6.13;;;1.33;;
74791;SDS011;63319;46.046;17.802;2023-09-19T14:15:37;2.95;;;1.10;;
74791;SDS011;63319;46.046;17.802;2023-09-19T14:18:41;2.38;;;1.10;;
74791;SDS011;63319;46.046;17.802;2023-09-19T14:21:44;2.70;;;1.10;;
74791;SDS011;63319;46.046;17.802;2023-09-19T14:24:47;4.70;;;1.20;;
74791;SDS011;63319;46.046;17.802;2023-09-19T14:27:50;9.53;;;1.20;;
74791;SDS011;63319;46.046;17.802;2023-09-19T14:30:54;3.13;;;1.13;;
74791;SDS011;63319;46.046;17.802;2023-09-19T14:33:57;5.07;;;1.10;;
74791;SDS011;63319;46.046;17.802;2023-09-19T14:37:01;5.05;;;1.27;;
74791;SDS011;63319;46.046;17.802;2023-09-19T14:40:05;4.03;;;1.05;;
74791;SDS011;63319;46.046;17.802;2023-09-19T14:43:11;6.10;;;1.07;;
74791;SDS011;63319;46.046;17.802;2023-09-19T14:46:14;4.10;;;1.00;;
74791;SDS011;63319;46.046;17.802;2023-09-19T14:49:18;2.83;;;0.95;;
74791;SDS011;63319;46.046;17.802;2023-09-19T14:52:21;3.15;;;0.80;;
74791;SDS011;63319;46.046;17.802;2023-09-19T14:55:25;5.95;;;1.30;;
74791;SDS011;63319;46.046;17.802;2023-09-19T14:58:30;7.43;;;1.10;;
74791;SDS011;63319;46.046;17.802;2023-09-19T15:01:34;5.78;;;0.80;;
74791;SDS011;63319;46.046;17.802;2023-09-19T15:04:38;5.88;;;1.00;;
74791;SDS011;63319;46.046;17.802;2023-09-19T15:07:44;3.42;;;1.00;;
74791;SDS011;63319;46.046;17.802;2023-09-19T15:10:51;3.13;;;1.15;;
74791;SDS011;63319;46.046;17.802;2023-09-19T15:13:56;6.20;;;1.10;;
74791;SDS011;63319;46.046;17.802;2023-09-19T15:16:59;3.55;;;0.93;;
74791;SDS011;63319;46.046;17.802;2023-09-19T15:20:03;9.00;;;1.48;;
74791;SDS011;63319;46.046;17.802;2023-09-19T15:23:09;3.67;;;1.20;;
74791;SDS011;63319;46.046;17.802;2023-09-19T15:26:13;7.53;;;1.98;;
74791;SDS011;63319;46.046;17.802;2023-09-19T15:29:24;5.53;;;1.23;;
74791;SDS011;63319;46.046;17.802;2023-09-19T15:32:28;2.72;;;0.80;;
74791;SDS011;63319;46.046;17.802;2023-09-19T15:35:34;2.63;;;1.02;;
74791;SDS011;63319;46.046;17.802;2023-09-19T15:41:56;33.90;;;3.15;;
74791;SDS011;63319;46.046;17.802;2023-09-19T15:45:00;82.40;;;7.57;;
74791;SDS011;63319;46.046;17.802;2023-09-19T15:48:04;43.13;;;4.28;;
74791;SDS011;63319;46.046;17.802;2023-09-19T15:51:08;30.98;;;3.28;;
74791;SDS011;63319;46.046;17.802;2023-09-19T15:54:15;25.85;;;3.08;;
74791;SDS011;63319;46.046;17.802;2023-09-19T15:57:18;30.08;;;3.30;;
74791;SDS011;63319;46.046;17.802;2023-09-19T16:00:23;31.37;;;3.33;;
74791;SDS011;63319;46.046;17.802;2023-09-19T16:03:26;26.02;;;3.05;;
74791;SDS011;63319;46.046;17.802;2023-09-19T16:06:30;27.10;;;3.33;;
74791;SDS011;63319;46.046;17.802;2023-09-19T16:09:34;22.25;;;3.33;;
74791;SDS011;63319;46.046;17.802;2023-09-19T16:12:38;27.48;;;2.75;;
74791;SDS011;63319;46.046;17.802;2023-09-19T16:15:42;30.30;;;2.70;;
74791;SDS011;63319;46.046;17.802;2023-09-19T16:18:49;23.48;;;2.85;;
74791;SDS011;63319;46.046;17.802;2023-09-19T16:21:54;29.83;;;2.63;;
74791;SDS011;63319;46.046;17.802;2023-09-19T16:24:58;20.63;;;3.05;;
74791;SDS011;63319;46.046;17.802;2023-09-19T16:28:02;19.13;;;2.42;;
74791;SDS011;63319;46.046;17.802;2023-09-19T16:31:07;16.27;;;2.57;;
74791;SDS011;63319;46.046;17.802;2023-09-19T16:34:11;15.63;;;2.20;;
74791;SDS011;63319;46.046;17.802;2023-09-19T16:37:18;23.98;;;2.65;;
74791;SDS011;63319;46.046;17.802;2023-09-19T16:40:54;21.13;;;2.38;;
74791;SDS011;63319;46.046;17.802;2023-09-19T16:44:00;18.45;;;2.15;;
74791;SDS011;63319;46.046;17.802;2023-09-19T16:47:04;11.63;;;1.90;;
74791;SDS011;63319;46.046;17.802;2023-09-19T16:50:07;9.75;;;1.92;;
74791;SDS011;63319;46.046;17.802;2023-09-19T16:53:12;11.35;;;1.95;;
74791;SDS011;63319;46.046;17.802;2023-09-19T16:56:21;16.70;;;2.53;;
74791;SDS011;63319;46.046;17.802;2023-09-19T16:59:25;12.02;;;2.40;;
74791;SDS011;63319;46.046;17.802;2023-09-19T17:02:29;16.70;;;2.33;;
74791;SDS011;63319;46.046;17.802;2023-09-19T17:05:34;19.13;;;2.42;;
74791;SDS011;63319;46.046;17.802;2023-09-19T17:08:37;14.07;;;2.50;;
74791;SDS011;63319;46.046;17.802;2023-09-19T17:11:41;16.17;;;2.42;;
74791;SDS011;63319;46.046;17.802;2023-09-19T17:14:45;13.90;;;1.92;;
74791;SDS011;63319;46.046;17.802;2023-09-19T17:17:49;14.33;;;2.03;;
74791;SDS011;63319;46.046;17.802;2023-09-19T17:20:54;14.52;;;1.70;;
74791;SDS011;63319;46.046;17.802;2023-09-19T17:23:58;13.80;;;2.00;;
74791;SDS011;63319;46.046;17.802;2023-09-19T17:27:02;10.38;;;1.70;;
74791;SDS011;63319;46.046;17.802;2023-09-19T17:30:08;9.73;;;2.00;;
74791;SDS011;63319;46.046;17.802;2023-09-19T17:33:19;12.83;;;2.33;;
74791;SDS011;63319;46.046;17.802;2023-09-19T17:36:24;11.95;;;1.77;;
74791;SDS011;63319;46.046;17.802;2023-09-19T17:39:33;11.52;;;1.77;;
74791;SDS011;63319;46.046;17.802;2023-09-19T17:42:41;11.95;;;2.03;;
74791;SDS011;63319;46.046;17.802;2023-09-19T17:45:47;12.73;;;1.55;;
74791;SDS011;63319;46.046;17.802;2023-09-19T17:48:54;11.37;;;1.50;;
74791;SDS011;63319;46.046;17.802;2023-09-19T17:52:05;11.90;;;1.58;;
74791;SDS011;63319;46.046;17.802;2023-09-19T17:55:11;8.25;;;1.50;;
74791;SDS011;63319;46.046;17.802;2023-09-19T17:58:22;9.40;;;1.77;;
74791;SDS011;63319;46.046;17.802;2023-09-19T18:01:28;15.27;;;2.38;;
74791;SDS011;63319;46.046;17.802;2023-09-19T18:04:38;10.47;;;1.80;;
74791;SDS011;63319;46.046;17.802;2023-09-19T18:07:45;7.53;;;1.27;;
74791;SDS011;63319;46.046;17.802;2023-09-19T18:10:56;10.55;;;1.65;;
74791;SDS011;63319;46.046;17.802;2023-09-19T18:14:02;7.22;;;1.08;;
74791;SDS011;63319;46.046;17.802;2023-09-19T18:17:10;8.25;;;1.90;;
74791;SDS011;63319;46.046;17.802;2023-09-19T18:20:17;10.47;;;1.57;;
74791;SDS011;63319;46.046;17.802;2023-09-19T18:23:24;9.75;;;1.60;;
74791;SDS011;63319;46.046;17.802;2023-09-19T18:26:37;12.05;;;1.48;;
74791;SDS011;63319;46.046;17.802;2023-09-19T18:29:41;6.70;;;1.20;;
74791;SDS011;63319;46.046;17.802;2023-09-19T18:32:48;6.82;;;1.33;;
74791;SDS011;63319;46.046;17.802;2023-09-19T18:36:02;9.90;;;1.97;;
74791;SDS011;63319;46.046;17.802;2023-09-19T18:39:07;11.10;;;1.60;;
74791;SDS011;63319;46.046;17.802;2023-09-19T18:42:13;7.95;;;1.83;;
74791;SDS011;63319;46.046;17.802;2023-09-19T18:45:17;9.32;;;1.75;;
74791;SDS011;63319;46.046;17.802;2023-09-19T18:48:42;7.68;;;1.52;;
74791;SDS011;63319;46.046;17.802;2023-09-19T18:51:54;8.23;;;1.60;;
74791;SDS011;63319;46.046;17.802;2023-09-19T18:55:17;7.88;;;1.48;;
74791;SDS011;63319;46.046;17.802;2023-09-19T18:58:25;5.53;;;1.17;;
74791;SDS011;63319;46.046;17.802;2023-09-19T19:01:31;7.82;;;2.17;;